Ripon, United Kingdom
Current Conditions -  °F | °C
As of 7:50 AM on Sunday 26 Oct 2014 (Local Time) from EGXD Reporting Station
Broken Clouds Broken Clouds  
Wind Chill: 54°   Ceiling: 1900
Heat Index: 54°   Visibility: 6mi
Dew Point: 48°   Wind: 8mph
Humidity: 82%   Direction: 190°S
Pressure: 29.91"   Gusts: NA
Location:  54.14°N, 1.52°W
Report Text: EGXD 260650Z AUTO 19007KT 9999 // BKN019/// SCT034/// 12/09 Q1013
Loading
Personal Weather Stations






























Interactive Weather Map
Tropical Storm Tracking
New forecast layout! Learn more

10-Day Weather Forecast

Advertisements
Track Severe Weather on mobile